sensor_id;sensor_type;location;lat;lon;timestamp;temperature;humidity
12655;DHT22;6392;44.644;11.448;2023-09-12T00:00:00;24.10;99.90
12655;DHT22;6392;44.644;11.448;2023-09-12T00:02:28;24.10;99.90
12655;DHT22;6392;44.644;11.448;2023-09-12T00:04:55;24.10;99.90
12655;DHT22;6392;44.644;11.448;2023-09-12T00:07:22;24.10;99.90
12655;DHT22;6392;44.644;11.448;2023-09-12T00:10:18;24.10;99.90
12655;DHT22;6392;44.644;11.448;2023-09-12T00:13:23;24.10;99.90
12655;DHT22;6392;44.644;11.448;2023-09-12T00:16:07;24.10;99.90
12655;DHT22;6392;44.644;11.448;2023-09-12T00:18:36;24.00;99.90
12655;DHT22;6392;44.644;11.448;2023-09-12T00:21:03;23.90;99.90
12655;DHT22;6392;44.644;11.448;2023-09-12T00:23:30;23.80;99.90
12655;DHT22;6392;44.644;11.448;2023-09-12T00:26:11;23.80;99.90
12655;DHT22;6392;44.644;11.448;2023-09-12T00:28:48;23.80;99.90
12655;DHT22;6392;44.644;11.448;2023-09-12T00:31:33;23.80;99.90
12655;DHT22;6392;44.644;11.448;2023-09-12T00:34:00;23.80;99.90
12655;DHT22;6392;44.644;11.448;2023-09-12T00:36:27;23.80;99.90
12655;DHT22;6392;44.644;11.448;2023-09-12T00:38:54;23.90;99.90
12655;DHT22;6392;44.644;11.448;2023-09-12T00:41:21;23.90;99.90
12655;DHT22;6392;44.644;11.448;2023-09-12T00:43:49;23.80;99.90
12655;DHT22;6392;44.644;11.448;2023-09-12T00:52:43;23.70;99.90
12655;DHT22;6392;44.644;11.448;2023-09-12T00:55:45;23.70;99.90
12655;DHT22;6392;44.644;11.448;2023-09-12T00:58:20;23.60;99.90
12655;DHT22;6392;44.644;11.448;2023-09-12T01:00:48;23.60;99.90
12655;DHT22;6392;44.644;11.448;2023-09-12T01:03:15;23.60;99.90
12655;DHT22;6392;44.644;11.448;2023-09-12T01:05:43;23.60;99.90
12655;DHT22;6392;44.644;11.448;2023-09-12T01:08:10;23.60;99.90
12655;DHT22;6392;44.644;11.448;2023-09-12T01:10:37;23.60;99.90
12655;DHT22;6392;44.644;11.448;2023-09-12T01:16:14;23.40;99.90
12655;DHT22;6392;44.644;11.448;2023-09-12T01:18:41;23.40;99.90
12655;DHT22;6392;44.644;11.448;2023-09-12T01:21:36;23.30;99.90
12655;DHT22;6392;44.644;11.448;2023-09-12T01:24:18;23.30;99.90
12655;DHT22;6392;44.644;11.448;2023-09-12T01:27:14;23.20;99.90
12655;DHT22;6392;44.644;11.448;2023-09-12T01:29:49;23.20;99.90
12655;DHT22;6392;44.644;11.448;2023-09-12T01:32:32;23.20;99.90
12655;DHT22;6392;44.644;11.448;2023-09-12T01:35:11;23.20;99.90
12655;DHT22;6392;44.644;11.448;2023-09-12T01:37:39;23.20;99.90
12655;DHT22;6392;44.644;11.448;2023-09-12T01:40:07;23.20;99.90
12655;DHT22;6392;44.644;11.448;2023-09-12T01:42:37;23.20;99.90
12655;DHT22;6392;44.644;11.448;2023-09-12T01:45:06;23.20;99.90
12655;DHT22;6392;44.644;11.448;2023-09-12T01:47:34;23.20;99.90
12655;DHT22;6392;44.644;11.448;2023-09-12T01:50:03;23.10;99.90
12655;DHT22;6392;44.644;11.448;2023-09-12T01:52:40;23.10;99.90
12655;DHT22;6392;44.644;11.448;2023-09-12T01:55:18;23.10;99.90
12655;DHT22;6392;44.644;11.448;2023-09-12T01:57:54;23.00;99.90
12655;DHT22;6392;44.644;11.448;2023-09-12T02:00:22;23.00;99.90
12655;DHT22;6392;44.644;11.448;2023-09-12T02:02:49;23.00;99.90
12655;DHT22;6392;44.644;11.448;2023-09-12T02:05:19;23.00;99.90
12655;DHT22;6392;44.644;11.448;2023-09-12T02:07:47;22.90;99.90
12655;DHT22;6392;44.644;11.448;2023-09-12T02:10:15;22.90;99.90
12655;DHT22;6392;44.644;11.448;2023-09-12T02:12:42;22.90;99.90
12655;DHT22;6392;44.644;11.448;2023-09-12T02:15:10;22.70;99.90
12655;DHT22;6392;44.644;11.448;2023-09-12T02:17:38;22.70;99.90
12655;DHT22;6392;44.644;11.448;2023-09-12T02:20:07;22.70;99.90
12655;DHT22;6392;44.644;11.448;2023-09-12T02:22:34;22.70;99.90
12655;DHT22;6392;44.644;11.448;2023-09-12T02:25:03;22.70;99.90
12655;DHT22;6392;44.644;11.448;2023-09-12T02:27:30;22.70;99.90
12655;DHT22;6392;44.644;11.448;2023-09-12T02:29:57;22.70;99.90
12655;DHT22;6392;44.644;11.448;2023-09-12T02:32:25;22.70;99.90
12655;DHT22;6392;44.644;11.448;2023-09-12T02:34:52;22.70;99.90
12655;DHT22;6392;44.644;11.448;2023-09-12T02:37:22;22.80;99.90
12655;DHT22;6392;44.644;11.448;2023-09-12T02:39:49;22.80;99.90
12655;DHT22;6392;44.644;11.448;2023-09-12T02:42:16;22.80;99.90
12655;DHT22;6392;44.644;11.448;2023-09-12T02:44:43;22.70;99.90
12655;DHT22;6392;44.644;11.448;2023-09-12T02:47:10;22.70;99.90
12655;DHT22;6392;44.644;11.448;2023-09-12T02:49:39;22.70;99.90
12655;DHT22;6392;44.644;11.448;2023-09-12T02:52:06;22.70;99.90
12655;DHT22;6392;44.644;11.448;2023-09-12T02:54:33;22.70;99.90
12655;DHT22;6392;44.644;11.448;2023-09-12T02:57:00;22.70;99.90
12655;DHT22;6392;44.644;11.448;2023-09-12T02:59:27;22.60;99.90
12655;DHT22;6392;44.644;11.448;2023-09-12T03:01:54;22.60;99.90
12655;DHT22;6392;44.644;11.448;2023-09-12T03:04:21;22.50;99.90
12655;DHT22;6392;44.644;11.448;2023-09-12T03:06:49;22.50;99.90
12655;DHT22;6392;44.644;11.448;2023-09-12T03:09:16;22.40;99.90
12655;DHT22;6392;44.644;11.448;2023-09-12T03:11:45;22.30;99.90
12655;DHT22;6392;44.644;11.448;2023-09-12T03:14:12;22.30;99.90
12655;DHT22;6392;44.644;11.448;2023-09-12T03:16:39;22.30;99.90
12655;DHT22;6392;44.644;11.448;2023-09-12T03:19:06;22.20;99.90
12655;DHT22;6392;44.644;11.448;2023-09-12T03:21:33;22.20;99.90
12655;DHT22;6392;44.644;11.448;2023-09-12T03:24:01;22.10;99.90
12655;DHT22;6392;44.644;11.448;2023-09-12T03:26:28;22.10;99.90
12655;DHT22;6392;44.644;11.448;2023-09-12T03:28:55;22.10;99.90
12655;DHT22;6392;44.644;11.448;2023-09-12T03:31:22;22.10;99.90
12655;DHT22;6392;44.644;11.448;2023-09-12T03:33:50;22.10;99.90
12655;DHT22;6392;44.644;11.448;2023-09-12T03:36:17;22.10;99.90
12655;DHT22;6392;44.644;11.448;2023-09-12T03:38:44;22.10;99.90
12655;DHT22;6392;44.644;11.448;2023-09-12T03:41:12;22.10;99.90
12655;DHT22;6392;44.644;11.448;2023-09-12T03:43:39;22.10;99.90
12655;DHT22;6392;44.644;11.448;2023-09-12T03:46:06;22.10;99.90
12655;DHT22;6392;44.644;11.448;2023-09-12T03:48:33;22.00;99.90
12655;DHT22;6392;44.644;11.448;2023-09-12T03:51:02;22.00;99.90
12655;DHT22;6392;44.644;11.448;2023-09-12T03:53:29;22.00;99.90
12655;DHT22;6392;44.644;11.448;2023-09-12T03:55:58;22.00;99.90
12655;DHT22;6392;44.644;11.448;2023-09-12T03:58:27;22.00;99.90
12655;DHT22;6392;44.644;11.448;2023-09-12T04:00:54;21.90;99.90
12655;DHT22;6392;44.644;11.448;2023-09-12T04:03:21;22.00;99.90
12655;DHT22;6392;44.644;11.448;2023-09-12T04:05:49;21.90;99.90
12655;DHT22;6392;44.644;11.448;2023-09-12T04:08:17;21.90;99.90
12655;DHT22;6392;44.644;11.448;2023-09-12T04:10:44;21.90;99.90
12655;DHT22;6392;44.644;11.448;2023-09-12T04:13:11;21.90;99.90
12655;DHT22;6392;44.644;11.448;2023-09-12T04:15:39;21.90;99.90
12655;DHT22;6392;44.644;11.448;2023-09-12T04:18:06;21.90;99.90
12655;DHT22;6392;44.644;11.448;2023-09-12T04:20:33;21.80;99.90
12655;DHT22;6392;44.644;11.448;2023-09-12T04:23:01;21.80;99.90
12655;DHT22;6392;44.644;11.448;2023-09-12T04:25:29;21.80;99.90
12655;DHT22;6392;44.644;11.448;2023-09-12T04:27:56;21.70;99.90
12655;DHT22;6392;44.644;11.448;2023-09-12T04:30:23;21.60;99.90
12655;DHT22;6392;44.644;11.448;2023-09-12T04:32:52;21.60;99.90
12655;DHT22;6392;44.644;11.448;2023-09-12T04:35:19;21.60;99.90
12655;DHT22;6392;44.644;11.448;2023-09-12T04:37:46;21.60;99.90
12655;DHT22;6392;44.644;11.448;2023-09-12T04:40:13;21.60;99.90
12655;DHT22;6392;44.644;11.448;2023-09-12T04:42:40;21.60;99.90
12655;DHT22;6392;44.644;11.448;2023-09-12T04:45:08;21.60;99.90
12655;DHT22;6392;44.644;11.448;2023-09-12T04:47:35;21.60;99.90
12655;DHT22;6392;44.644;11.448;2023-09-12T04:50:04;21.50;99.90
12655;DHT22;6392;44.644;11.448;2023-09-12T04:52:32;21.50;99.90
12655;DHT22;6392;44.644;11.448;2023-09-12T04:54:59;21.50;99.90
12655;DHT22;6392;44.644;11.448;2023-09-12T04:57:26;21.60;99.90
12655;DHT22;6392;44.644;11.448;2023-09-12T04:59:56;21.50;99.90
12655;DHT22;6392;44.644;11.448;2023-09-12T05:02:24;21.50;99.90
12655;DHT22;6392;44.644;11.448;2023-09-12T05:04:51;21.40;99.90
12655;DHT22;6392;44.644;11.448;2023-09-12T05:07:19;21.40;99.90
12655;DHT22;6392;44.644;11.448;2023-09-12T05:09:46;21.40;99.90
12655;DHT22;6392;44.644;11.448;2023-09-12T05:12:13;21.30;99.90
12655;DHT22;6392;44.644;11.448;2023-09-12T05:14:40;21.30;99.90
12655;DHT22;6392;44.644;11.448;2023-09-12T05:17:07;21.30;99.90
12655;DHT22;6392;44.644;11.448;2023-09-12T05:19:34;21.40;99.90
12655;DHT22;6392;44.644;11.448;2023-09-12T05:22:02;21.30;99.90
12655;DHT22;6392;44.644;11.448;2023-09-12T05:24:30;21.20;99.90
12655;DHT22;6392;44.644;11.448;2023-09-12T05:26:57;21.10;99.90
12655;DHT22;6392;44.644;11.448;2023-09-12T05:29:24;21.00;99.90
12655;DHT22;6392;44.644;11.448;2023-09-12T05:31:51;21.00;99.90
12655;DHT22;6392;44.644;11.448;2023-09-12T05:34:18;21.00;99.90
12655;DHT22;6392;44.644;11.448;2023-09-12T05:36:45;21.00;99.90
12655;DHT22;6392;44.644;11.448;2023-09-12T05:39:12;20.90;99.90
12655;DHT22;6392;44.644;11.448;2023-09-12T05:41:41;21.00;99.90
12655;DHT22;6392;44.644;11.448;2023-09-12T05:44:08;21.10;99.90
12655;DHT22;6392;44.644;11.448;2023-09-12T05:46:38;21.10;99.90
12655;DHT22;6392;44.644;11.448;2023-09-12T05:49:05;21.20;99.90
12655;DHT22;6392;44.644;11.448;2023-09-12T05:51:32;21.30;99.90
12655;DHT22;6392;44.644;11.448;2023-09-12T05:53:59;21.40;99.90
12655;DHT22;6392;44.644;11.448;2023-09-12T05:56:26;21.50;99.90
12655;DHT22;6392;44.644;11.448;2023-09-12T05:58:55;21.70;99.90
12655;DHT22;6392;44.644;11.448;2023-09-12T06:01:22;21.70;99.90
12655;DHT22;6392;44.644;11.448;2023-09-12T06:03:49;21.80;99.90
12655;DHT22;6392;44.644;11.448;2023-09-12T06:06:16;21.90;99.90
12655;DHT22;6392;44.644;11.448;2023-09-12T06:08:43;22.00;99.90
12655;DHT22;6392;44.644;11.448;2023-09-12T06:11:14;22.10;99.90
12655;DHT22;6392;44.644;11.448;2023-09-12T06:13:43;22.10;99.90
12655;DHT22;6392;44.644;11.448;2023-09-12T06:16:20;22.20;99.90
12655;DHT22;6392;44.644;11.448;2023-09-12T06:18:48;22.20;99.90
12655;DHT22;6392;44.644;11.448;2023-09-12T06:21:18;22.20;99.90
12655;DHT22;6392;44.644;11.448;2023-09-12T06:24:10;22.30;99.90
12655;DHT22;6392;44.644;11.448;2023-09-12T06:26:38;22.30;99.90
12655;DHT22;6392;44.644;11.448;2023-09-12T06:29:06;22.40;99.90
12655;DHT22;6392;44.644;11.448;2023-09-12T06:31:34;22.40;99.90
12655;DHT22;6392;44.644;11.448;2023-09-12T06:34:02;22.40;99.90
12655;DHT22;6392;44.644;11.448;2023-09-12T06:36:29;22.40;99.90
12655;DHT22;6392;44.644;11.448;2023-09-12T06:38:56;22.40;99.90
12655;DHT22;6392;44.644;11.448;2023-09-12T06:41:23;22.40;99.90
12655;DHT22;6392;44.644;11.448;2023-09-12T06:43:55;22.50;99.90
12655;DHT22;6392;44.644;11.448;2023-09-12T06:46:23;22.50;99.90
12655;DHT22;6392;44.644;11.448;2023-09-12T06:48:52;22.50;99.90
12655;DHT22;6392;44.644;11.448;2023-09-12T06:51:24;22.50;99.90
12655;DHT22;6392;44.644;11.448;2023-09-12T06:53:51;22.50;99.90
12655;DHT22;6392;44.644;11.448;2023-09-12T06:56:18;22.60;99.90
12655;DHT22;6392;44.644;11.448;2023-09-12T06:58:45;22.70;99.90
12655;DHT22;6392;44.644;11.448;2023-09-12T07:01:13;22.70;99.90
12655;DHT22;6392;44.644;11.448;2023-09-12T07:03:41;22.70;99.90
12655;DHT22;6392;44.644;11.448;2023-09-12T07:06:12;22.80;99.90
12655;DHT22;6392;44.644;11.448;2023-09-12T07:08:41;22.80;99.90
12655;DHT22;6392;44.644;11.448;2023-09-12T07:11:09;22.90;99.90
12655;DHT22;6392;44.644;11.448;2023-09-12T07:13:36;23.00;99.90
12655;DHT22;6392;44.644;11.448;2023-09-12T07:16:03;23.00;99.90
12655;DHT22;6392;44.644;11.448;2023-09-12T07:18:31;23.00;99.90
12655;DHT22;6392;44.644;11.448;2023-09-12T07:21:02;23.10;99.90
12655;DHT22;6392;44.644;11.448;2023-09-12T07:23:31;23.10;99.90
12655;DHT22;6392;44.644;11.448;2023-09-12T07:25:58;23.20;99.90
12655;DHT22;6392;44.644;11.448;2023-09-12T07:28:25;23.20;99.90
12655;DHT22;6392;44.644;11.448;2023-09-12T07:30:53;23.30;99.90
12655;DHT22;6392;44.644;11.448;2023-09-12T07:33:20;23.40;99.90
12655;DHT22;6392;44.644;11.448;2023-09-12T07:35:48;23.40;99.90
12655;DHT22;6392;44.644;11.448;2023-09-12T07:38:15;23.40;99.90
12655;DHT22;6392;44.644;11.448;2023-09-12T07:40:44;23.50;99.90
12655;DHT22;6392;44.644;11.448;2023-09-12T07:43:12;23.50;99.90
12655;DHT22;6392;44.644;11.448;2023-09-12T07:45:39;23.60;99.90
12655;DHT22;6392;44.644;11.448;2023-09-12T07:48:07;23.60;99.90
12655;DHT22;6392;44.644;11.448;2023-09-12T07:50:35;23.70;99.90
12655;DHT22;6392;44.644;11.448;2023-09-12T07:53:04;23.80;99.90
12655;DHT22;6392;44.644;11.448;2023-09-12T07:55:31;23.80;99.90
12655;DHT22;6392;44.644;11.448;2023-09-12T07:58:03;23.80;99.90
12655;DHT22;6392;44.644;11.448;2023-09-12T08:00:30;23.90;99.90
12655;DHT22;6392;44.644;11.448;2023-09-12T08:02:57;23.90;99.90
12655;DHT22;6392;44.644;11.448;2023-09-12T08:05:24;23.90;99.90
12655;DHT22;6392;44.644;11.448;2023-09-12T08:07:51;23.90;99.90
12655;DHT22;6392;44.644;11.448;2023-09-12T08:10:18;24.00;99.90
12655;DHT22;6392;44.644;11.448;2023-09-12T08:12:46;24.00;99.90
12655;DHT22;6392;44.644;11.448;2023-09-12T08:15:20;24.00;99.90
12655;DHT22;6392;44.644;11.448;2023-09-12T08:17:47;24.00;99.90
12655;DHT22;6392;44.644;11.448;2023-09-12T08:20:20;24.10;99.90
12655;DHT22;6392;44.644;11.448;2023-09-12T08:22:51;24.10;99.90
12655;DHT22;6392;44.644;11.448;2023-09-12T08:25:22;24.20;99.90
12655;DHT22;6392;44.644;11.448;2023-09-12T08:27:50;24.30;99.90
12655;DHT22;6392;44.644;11.448;2023-09-12T08:30:22;24.30;99.90
12655;DHT22;6392;44.644;11.448;2023-09-12T08:32:51;24.30;99.90
12655;DHT22;6392;44.644;11.448;2023-09-12T08:35:20;24.30;99.90
12655;DHT22;6392;44.644;11.448;2023-09-12T08:37:48;24.40;99.90
12655;DHT22;6392;44.644;11.448;2023-09-12T08:40:17;24.40;99.90
12655;DHT22;6392;44.644;11.448;2023-09-12T08:42:49;24.40;99.90
12655;DHT22;6392;44.644;11.448;2023-09-12T08:45:29;24.50;99.90
12655;DHT22;6392;44.644;11.448;2023-09-12T08:48:00;24.50;99.90
12655;DHT22;6392;44.644;11.448;2023-09-12T08:50:30;24.50;99.90
12655;DHT22;6392;44.644;11.448;2023-09-12T08:53:04;24.50;99.90
12655;DHT22;6392;44.644;11.448;2023-09-12T08:55:35;24.60;99.90
12655;DHT22;6392;44.644;11.448;2023-09-12T08:58:06;24.60;99.90
12655;DHT22;6392;44.644;11.448;2023-09-12T09:00:36;24.70;99.90
12655;DHT22;6392;44.644;11.448;2023-09-12T09:03:05;24.80;99.90
12655;DHT22;6392;44.644;11.448;2023-09-12T09:05:35;24.90;99.90
12655;DHT22;6392;44.644;11.448;2023-09-12T09:08:07;24.90;99.90
12655;DHT22;6392;44.644;11.448;2023-09-12T09:10:35;25.00;99.90
12655;DHT22;6392;44.644;11.448;2023-09-12T09:13:04;25.10;99.90
12655;DHT22;6392;44.644;11.448;2023-09-12T09:15:36;25.20;99.90
12655;DHT22;6392;44.644;11.448;2023-09-12T09:18:10;25.20;99.90
12655;DHT22;6392;44.644;11.448;2023-09-12T09:20:39;25.30;99.90
12655;DHT22;6392;44.644;11.448;2023-09-12T09:23:15;25.40;99.90
12655;DHT22;6392;44.644;11.448;2023-09-12T09:25:51;25.50;99.90
12655;DHT22;6392;44.644;11.448;2023-09-12T09:28:19;25.50;99.90
12655;DHT22;6392;44.644;11.448;2023-09-12T09:30:50;25.50;99.90
12655;DHT22;6392;44.644;11.448;2023-09-12T09:33:20;25.50;99.90
12655;DHT22;6392;44.644;11.448;2023-09-12T09:35:48;25.60;99.90
12655;DHT22;6392;44.644;11.448;2023-09-12T09:38:19;25.60;99.90
12655;DHT22;6392;44.644;11.448;2023-09-12T09:40:46;25.60;99.90
12655;DHT22;6392;44.644;11.448;2023-09-12T09:43:19;25.60;99.90
12655;DHT22;6392;44.644;11.448;2023-09-12T09:45:48;25.60;99.90
12655;DHT22;6392;44.644;11.448;2023-09-12T09:48:19;25.60;99.90
12655;DHT22;6392;44.644;11.448;2023-09-12T09:50:46;25.60;99.90
12655;DHT22;6392;44.644;11.448;2023-09-12T09:53:13;25.70;99.90
12655;DHT22;6392;44.644;11.448;2023-09-12T09:55:41;25.70;99.90
12655;DHT22;6392;44.644;11.448;2023-09-12T09:58:08;25.70;99.90
12655;DHT22;6392;44.644;11.448;2023-09-12T10:00:37;25.80;99.90
12655;DHT22;6392;44.644;11.448;2023-09-12T10:03:05;25.90;99.90
12655;DHT22;6392;44.644;11.448;2023-09-12T10:05:33;25.90;99.90
12655;DHT22;6392;44.644;11.448;2023-09-12T10:08:00;25.90;99.90
12655;DHT22;6392;44.644;11.448;2023-09-12T10:10:32;26.10;99.90
12655;DHT22;6392;44.644;11.448;2023-09-12T10:13:03;26.10;99.90
12655;DHT22;6392;44.644;11.448;2023-09-12T10:15:31;26.10;99.90
12655;DHT22;6392;44.644;11.448;2023-09-12T10:18:00;26.00;99.90
12655;DHT22;6392;44.644;11.448;2023-09-12T10:20:37;25.90;99.90
12655;DHT22;6392;44.644;11.448;2023-09-12T10:23:08;25.90;99.90
12655;DHT22;6392;44.644;11.448;2023-09-12T10:25:37;26.10;99.90
12655;DHT22;6392;44.644;11.448;2023-09-12T10:28:05;26.10;99.90
12655;DHT22;6392;44.644;11.448;2023-09-12T10:30:34;26.00;99.90
12655;DHT22;6392;44.644;11.448;2023-09-12T10:33:02;26.10;99.90
12655;DHT22;6392;44.644;11.448;2023-09-12T10:35:31;26.20;99.90
12655;DHT22;6392;44.644;11.448;2023-09-12T10:38:00;26.20;99.90
12655;DHT22;6392;44.644;11.448;2023-09-12T10:40:31;26.30;99.90
12655;DHT22;6392;44.644;11.448;2023-09-12T10:43:00;26.40;99.90
12655;DHT22;6392;44.644;11.448;2023-09-12T10:45:30;26.40;99.90
12655;DHT22;6392;44.644;11.448;2023-09-12T10:47:58;26.30;99.90
12655;DHT22;6392;44.644;11.448;2023-09-12T10:50:25;26.20;99.90
12655;DHT22;6392;44.644;11.448;2023-09-12T10:52:54;26.10;99.90
12655;DHT22;6392;44.644;11.448;2023-09-12T10:55:21;26.10;99.90
12655;DHT22;6392;44.644;11.448;2023-09-12T10:58:01;26.20;99.90
12655;DHT22;6392;44.644;11.448;2023-09-12T11:00:28;26.40;99.90
12655;DHT22;6392;44.644;11.448;2023-09-12T11:02:58;26.50;99.90
12655;DHT22;6392;44.644;11.448;2023-09-12T11:05:36;26.50;99.90
12655;DHT22;6392;44.644;11.448;2023-09-12T11:08:05;26.50;99.90
12655;DHT22;6392;44.644;11.448;2023-09-12T11:10:32;26.40;99.90
12655;DHT22;6392;44.644;11.448;2023-09-12T11:12:59;26.20;99.90
12655;DHT22;6392;44.644;11.448;2023-09-12T11:15:27;26.10;99.90
12655;DHT22;6392;44.644;11.448;2023-09-12T11:18:01;26.00;99.90
12655;DHT22;6392;44.644;11.448;2023-09-12T11:20:53;26.20;99.90
12655;DHT22;6392;44.644;11.448;2023-09-12T11:23:27;26.40;99.90
12655;DHT22;6392;44.644;11.448;2023-09-12T11:26:04;26.70;99.90
12655;DHT22;6392;44.644;11.448;2023-09-12T11:28:33;26.80;99.90
12655;DHT22;6392;44.644;11.448;2023-09-12T11:31:01;27.00;99.90
12655;DHT22;6392;44.644;11.448;2023-09-12T11:33:29;27.30;99.90
12655;DHT22;6392;44.644;11.448;2023-09-12T11:36:02;27.60;99.90
12655;DHT22;6392;44.644;11.448;2023-09-12T11:38:34;27.70;99.90
12655;DHT22;6392;44.644;11.448;2023-09-12T11:41:02;27.70;99.90
12655;DHT22;6392;44.644;11.448;2023-09-12T11:43:30;27.80;99.90
12655;DHT22;6392;44.644;11.448;2023-09-12T11:45:59;27.80;99.90
12655;DHT22;6392;44.644;11.448;2023-09-12T11:48:29;27.60;99.90
12655;DHT22;6392;44.644;11.448;2023-09-12T11:51:01;27.80;99.90
12655;DHT22;6392;44.644;11.448;2023-09-12T11:53:36;28.20;99.90
12655;DHT22;6392;44.644;11.448;2023-09-12T11:56:07;28.30;99.90
12655;DHT22;6392;44.644;11.448;2023-09-12T11:58:35;28.20;99.90
12655;DHT22;6392;44.644;11.448;2023-09-12T12:01:04;28.20;99.90
12655;DHT22;6392;44.644;11.448;2023-09-12T12:03:34;28.10;99.90
12655;DHT22;6392;44.644;11.448;2023-09-12T12:06:01;28.20;99.90
12655;DHT22;6392;44.644;11.448;2023-09-12T12:08:36;28.20;99.90
12655;DHT22;6392;44.644;11.448;2023-09-12T12:11:06;28.20;99.90
12655;DHT22;6392;44.644;11.448;2023-09-12T12:13:33;28.10;99.90
12655;DHT22;6392;44.644;11.448;2023-09-12T12:16:15;28.20;99.90
12655;DHT22;6392;44.644;11.448;2023-09-12T12:18:45;28.30;99.90
12655;DHT22;6392;44.644;11.448;2023-09-12T12:21:14;28.40;99.90
12655;DHT22;6392;44.644;11.448;2023-09-12T12:23:43;28.70;99.90
12655;DHT22;6392;44.644;11.448;2023-09-12T12:26:12;29.20;99.90
12655;DHT22;6392;44.644;11.448;2023-09-12T12:28:41;29.50;99.90
12655;DHT22;6392;44.644;11.448;2023-09-12T12:31:09;29.80;99.90
12655;DHT22;6392;44.644;11.448;2023-09-12T12:33:38;29.70;99.90
12655;DHT22;6392;44.644;11.448;2023-09-12T12:36:07;29.40;99.90
12655;DHT22;6392;44.644;11.448;2023-09-12T12:38:38;29.00;99.90
12655;DHT22;6392;44.644;11.448;2023-09-12T12:41:10;28.80;99.90
12655;DHT22;6392;44.644;11.448;2023-09-12T12:43:42;28.70;99.90
12655;DHT22;6392;44.644;11.448;2023-09-12T12:46:12;28.40;99.90
12655;DHT22;6392;44.644;11.448;2023-09-12T12:48:43;28.30;99.90
12655;DHT22;6392;44.644;11.448;2023-09-12T12:51:16;28.10;99.90
12655;DHT22;6392;44.644;11.448;2023-09-12T12:53:46;28.00;99.90
12655;DHT22;6392;44.644;11.448;2023-09-12T12:56:18;27.90;99.90
12655;DHT22;6392;44.644;11.448;2023-09-12T12:58:49;27.70;99.90
12655;DHT22;6392;44.644;11.448;2023-09-12T13:01:20;27.60;99.90
12655;DHT22;6392;44.644;11.448;2023-09-12T13:03:48;27.70;99.90
12655;DHT22;6392;44.644;11.448;2023-09-12T13:06:23;27.90;99.90
12655;DHT22;6392;44.644;11.448;2023-09-12T13:08:52;28.00;99.90
12655;DHT22;6392;44.644;11.448;2023-09-12T13:11:21;28.20;99.90
12655;DHT22;6392;44.644;11.448;2023-09-12T13:13:53;28.30;99.90
12655;DHT22;6392;44.644;11.448;2023-09-12T13:16:24;28.20;99.90
12655;DHT22;6392;44.644;11.448;2023-09-12T13:18:53;28.30;99.90
12655;DHT22;6392;44.644;11.448;2023-09-12T13:21:21;28.80;99.90
12655;DHT22;6392;44.644;11.448;2023-09-12T13:23:50;29.20;99.90
12655;DHT22;6392;44.644;11.448;2023-09-12T13:26:22;29.30;99.90
12655;DHT22;6392;44.644;11.448;2023-09-12T13:28:50;29.80;99.90
12655;DHT22;6392;44.644;11.448;2023-09-12T13:31:20;29.90;99.90
12655;DHT22;6392;44.644;11.448;2023-09-12T13:33:50;29.90;99.90
12655;DHT22;6392;44.644;11.448;2023-09-12T13:36:20;30.00;99.90
12655;DHT22;6392;44.644;11.448;2023-09-12T13:38:50;29.90;99.90
12655;DHT22;6392;44.644;11.448;2023-09-12T13:41:21;29.60;99.90
12655;DHT22;6392;44.644;11.448;2023-09-12T13:43:51;29.40;99.90
12655;DHT22;6392;44.644;11.448;2023-09-12T13:46:19;29.30;99.90
12655;DHT22;6392;44.644;11.448;2023-09-12T13:48:56;29.10;99.90
12655;DHT22;6392;44.644;11.448;2023-09-12T13:51:27;29.00;99.90
12655;DHT22;6392;44.644;11.448;2023-09-12T13:53:57;28.80;99.90
12655;DHT22;6392;44.644;11.448;2023-09-12T13:56:26;28.80;99.90
12655;DHT22;6392;44.644;11.448;2023-09-12T13:58:55;28.90;99.90
12655;DHT22;6392;44.644;11.448;2023-09-12T14:01:25;28.80;99.90
12655;DHT22;6392;44.644;11.448;2023-09-12T14:03:55;28.70;99.90
12655;DHT22;6392;44.644;11.448;2023-09-12T14:06:24;28.60;99.90
12655;DHT22;6392;44.644;11.448;2023-09-12T14:09:06;28.60;99.90
12655;DHT22;6392;44.644;11.448;2023-09-12T14:11:36;28.60;99.90
12655;DHT22;6392;44.644;11.448;2023-09-12T14:14:07;28.70;99.90
12655;DHT22;6392;44.644;11.448;2023-09-12T14:16:36;29.00;99.90
12655;DHT22;6392;44.644;11.448;2023-09-12T14:19:06;29.00;99.90
12655;DHT22;6392;44.644;11.448;2023-09-12T14:21:34;29.00;99.90
12655;DHT22;6392;44.644;11.448;2023-09-12T14:24:04;28.90;99.90
12655;DHT22;6392;44.644;11.448;2023-09-12T14:26:32;28.80;99.90
12655;DHT22;6392;44.644;11.448;2023-09-12T14:29:02;28.80;99.90
12655;DHT22;6392;44.644;11.448;2023-09-12T14:31:33;28.70;99.90
12655;DHT22;6392;44.644;11.448;2023-09-12T14:34:03;28.70;99.90
12655;DHT22;6392;44.644;11.448;2023-09-12T14:36:33;28.80;99.90
12655;DHT22;6392;44.644;11.448;2023-09-12T14:39:02;29.00;99.90
12655;DHT22;6392;44.644;11.448;2023-09-12T14:41:31;29.10;99.90
12655;DHT22;6392;44.644;11.448;2023-09-12T14:44:00;29.10;99.90
12655;DHT22;6392;44.644;11.448;2023-09-12T14:46:28;29.20;99.90
12655;DHT22;6392;44.644;11.448;2023-09-12T14:48:57;29.30;99.90
12655;DHT22;6392;44.644;11.448;2023-09-12T14:51:28;29.30;99.90
12655;DHT22;6392;44.644;11.448;2023-09-12T14:53:56;29.20;99.90
12655;DHT22;6392;44.644;11.448;2023-09-12T14:56:23;29.10;99.90
12655;DHT22;6392;44.644;11.448;2023-09-12T14:58:50;29.00;99.90
12655;DHT22;6392;44.644;11.448;2023-09-12T15:01:24;28.90;99.90
12655;DHT22;6392;44.644;11.448;2023-09-12T15:03:52;28.80;99.90
12655;DHT22;6392;44.644;11.448;2023-09-12T15:06:20;28.90;99.90
12655;DHT22;6392;44.644;11.448;2023-09-12T15:08:52;28.90;99.90
12655;DHT22;6392;44.644;11.448;2023-09-12T15:11:21;28.90;99.90
12655;DHT22;6392;44.644;11.448;2023-09-12T15:13:48;29.00;99.90
12655;DHT22;6392;44.644;11.448;2023-09-12T15:16:15;29.00;99.90
12655;DHT22;6392;44.644;11.448;2023-09-12T15:18:44;28.90;99.90
12655;DHT22;6392;44.644;11.448;2023-09-12T15:21:12;28.80;99.90
12655;DHT22;6392;44.644;11.448;2023-09-12T15:23:54;28.70;99.90
12655;DHT22;6392;44.644;11.448;2023-09-12T15:26:22;28.60;99.90
12655;DHT22;6392;44.644;11.448;2023-09-12T15:28:50;28.60;99.90
12655;DHT22;6392;44.644;11.448;2023-09-12T15:31:19;28.60;99.90
12655;DHT22;6392;44.644;11.448;2023-09-12T15:33:49;28.60;99.90
12655;DHT22;6392;44.644;11.448;2023-09-12T15:36:17;28.60;99.90
12655;DHT22;6392;44.644;11.448;2023-09-12T15:38:46;28.60;99.90
12655;DHT22;6392;44.644;11.448;2023-09-12T15:41:17;28.60;99.90
12655;DHT22;6392;44.644;11.448;2023-09-12T15:43:55;28.60;99.90
12655;DHT22;6392;44.644;11.448;2023-09-12T15:46:23;28.60;99.90
12655;DHT22;6392;44.644;11.448;2023-09-12T15:48:52;28.60;99.90
12655;DHT22;6392;44.644;11.448;2023-09-12T15:51:20;28.60;99.90
12655;DHT22;6392;44.644;11.448;2023-09-12T15:53:47;28.50;99.90